This is the latest recevied weather packets stored in our database for station/object IU2DXM. If no packets are shown the sender has not sent any weather packets the latest 10 day(s).
| Time | Temp. | Humidity | Pressure | Rain* | Wind** | Luminosity | Snow |
|---|---|---|---|---|---|---|---|
| 1777385418 | 26.11° C | - | - | 0 mm | - | 618 W/m² | - |
| 1777384818 | 26.11° C | - | - | 0 mm | - | 542 W/m² | - |
| 1777383618 | 25.56° C | - | - | 0 mm | - | 609 W/m² | - |
| 1777380018 | 25° C | - | - | 0 mm | - | 673 W/m² | - |
| 1777379439 | 25° C | - | - | 0 mm | - | 597 W/m² | - |
| 1777377620 | 25° C | - | - | 0 mm | - | 752 W/m² | - |
| 1777373418 | 23.33° C | - | - | 0 mm | - | 696 W/m² | - |
| 1777372219 | 23.33° C | - | - | 0 mm | - | 799 W/m² | - |
| 1777371037 | 23.33° C | - | - | 0 mm | - | 643 W/m² | - |
| 1777369817 | 22.78° C | - | - | 0 mm | - | 731 W/m² | - |
| 1777366817 | 21.11° C | - | - | 0 mm | - | 474 W/m² | - |
| 1777365017 | 20.56° C | - | - | 0 mm | - | 616 W/m² | - |
| 1777360237 | 17.78° C | - | - | 0 mm | - | 379 W/m² | - |
| 1777353639 | 13.89° C | - | - | 0 mm | - | 40 W/m² | - |
| 1777350016 | 13.89° C | - | - | 0 mm | - | 0 W/m² | - |
| 1777348856 | 13.89° C | - | - | 0 mm | - | 0 W/m² | - |
| 1777348217 | 13.89° C | - | - | 0 mm | - | 0 W/m² | - |
| 1777344617 | 14.44° C | - | - | 0 mm | - | 0 W/m² | - |
| 1777343416 | 15° C | - | - | 0 mm | - | 0 W/m² | - |
| 1777340416 | 15.56° C | - | - | 0 mm | - | 0 W/m² | - |
| 1777338616 | 16.11° C | - | - | 0 mm | - | 0 W/m² | - |
| 1777334418 | 16.67° C | - | - | 0 mm | - | 0 W/m² | - |
| 1777332037 | 17.22° C | - | - | 0 mm | - | 0 W/m² | - |
| 1777328418 | 18.89° C | - | - | 0 mm | - | 0 W/m² | - |
| 1777323017 | 20.56° C | - | - | 0 mm | - | 0 W/m² | - |
* Rain latest hour (hover to see other rain measurements)
** Current wind speed in m/s (hover to see current wind gust speed)